Time;durP1;ratioP1;P1;durP2;ratioP2;P2;SDS_P1;SDS_P2;PMS_P1;PMS_P2;Temp;Humidity;BMP_temperature;BMP_pressure;BME280_temperature;BME280_humidity;BME280_pressure;Samples;Min_cycle;Max_cycle;Signal;HPM_P1;HPM_P2
2023/01/28 00:01:28;;;;;;;4.63;3.40;;;6.20;57.70;;;;;;5038640;28;20047;-53
2023/01/28 00:03:56;;;;;;;5.00;3.60;;;6.20;57.80;;;;;;5043038;28;20417;-52
2023/01/28 00:06:23;;;;;;;4.65;3.40;;;6.20;57.80;;;;;;5041990;28;20055;-55
2023/01/28 00:08:50;;;;;;;4.85;3.38;;;6.20;57.70;;;;;;5036341;28;20064;-49
2023/01/28 00:11:21;;;;;;;4.55;3.58;;;6.20;57.70;;;;;;5039637;28;20049;-52
2023/01/28 00:13:51;;;;;;;4.93;3.53;;;6.20;57.60;;;;;;5042449;28;20049;-54
2023/01/28 00:16:19;;;;;;;4.05;3.53;;;6.30;57.50;;;;;;5042996;28;20057;-55
2023/01/28 00:18:46;;;;;;;5.95;3.53;;;6.30;57.30;;;;;;5040562;28;20560;-54
2023/01/28 00:21:15;;;;;;;4.93;3.47;;;6.30;57.30;;;;;;5040921;28;20052;-54
2023/01/28 00:23:47;;;;;;;5.65;3.70;;;6.30;57.20;;;;;;5037601;28;20061;-54
2023/01/28 00:26:15;;;;;;;4.88;3.40;;;6.30;57.10;;;;;;5040816;28;20517;-51
2023/01/28 00:28:44;;;;;;;7.22;3.85;;;6.20;57.10;;;;;;5038520;28;20045;-49
2023/01/28 00:31:16;;;;;;;5.82;3.58;;;6.20;57.70;;;;;;5042927;28;20052;-50
2023/01/28 00:33:43;;;;;;;6.18;3.58;;;6.20;57.10;;;;;;5040864;28;20053;-49
2023/01/28 00:36:11;;;;;;;5.72;3.60;;;6.20;57.10;;;;;;5041813;28;20064;-51
2023/01/28 00:38:41;;;;;;;5.05;3.40;;;6.20;57.00;;;;;;5036556;28;20048;-52
2023/01/28 00:41:09;;;;;;;3.88;3.08;;;6.20;57.10;;;;;;5041108;28;20053;-52
2023/01/28 00:43:37;;;;;;;5.32;3.50;;;6.20;57.30;;;;;;5041699;28;20052;-50
2023/01/28 00:46:07;;;;;;;6.18;3.72;;;6.20;57.20;;;;;;5042618;28;20064;-51
2023/01/28 00:48:34;;;;;;;5.60;3.70;;;6.20;57.10;;;;;;5040440;28;20054;-52
2023/01/28 00:51:02;;;;;;;5.55;3.38;;;6.20;57.20;;;;;;5038485;28;20067;-50
2023/01/28 00:53:29;;;;;;;9.95;4.22;;;6.20;57.30;;;;;;5039232;28;20056;-54
2023/01/28 00:55:57;;;;;;;5.50;3.53;;;6.20;57.20;;;;;;5039197;28;20045;-52
2023/01/28 00:58:24;;;;;;;5.97;3.90;;;6.30;57.00;;;;;;5041370;28;20053;-55
2023/01/28 01:00:51;;;;;;;4.57;3.50;;;6.30;57.00;;;;;;5039344;28;20425;-54
2023/01/28 01:03:20;;;;;;;5.63;4.30;;;6.20;57.00;;;;;;5041408;28;20056;-54
2023/01/28 01:05:48;;;;;;;5.25;3.80;;;6.20;56.90;;;;;;5041672;28;20417;-52
2023/01/28 01:08:15;;;;;;;4.45;3.80;;;6.10;57.00;;;;;;5041319;28;20477;-54
2023/01/28 01:10:42;;;;;;;6.43;4.00;;;6.10;57.10;;;;;;5037842;28;20045;-53
2023/01/28 01:13:10;;;;;;;6.20;4.10;;;6.10;57.30;;;;;;5040210;28;20044;-54
2023/01/28 01:15:37;;;;;;;8.48;4.93;;;6.10;57.30;;;;;;5040938;28;20049;-51
2023/01/28 01:18:04;;;;;;;4.72;3.45;;;6.10;57.30;;;;;;5040658;28;20053;-54
2023/01/28 01:20:38;;;;;;;5.30;3.70;;;6.10;57.40;;;;;;5038145;28;20135;-49
2023/01/28 01:23:06;;;;;;;4.90;3.80;;;6.10;57.50;;;;;;5036301;28;20060;-55
2023/01/28 01:25:33;;;;;;;4.65;3.30;;;6.10;57.50;;;;;;5038684;28;20060;-51
2023/01/28 01:28:00;;;;;;;5.45;3.95;;;6.10;57.60;;;;;;5039680;28;20532;-53
2023/01/28 01:30:27;;;;;;;6.25;3.28;;;6.20;57.70;;;;;;5040494;28;20041;-53
2023/01/28 01:32:54;;;;;;;10.05;3.70;;;6.20;57.70;;;;;;5037531;28;20048;-55
2023/01/28 01:35:22;;;;;;;4.80;3.40;;;6.20;57.60;;;;;;5041034;28;20052;-54
2023/01/28 01:37:50;;;;;;;4.32;3.08;;;6.30;57.60;;;;;;5040349;28;20527;-51
2023/01/28 01:40:18;;;;;;;10.38;3.38;;;6.30;57.50;;;;;;5036066;28;20056;-50
2023/01/28 01:42:45;;;;;;;4.68;3.30;;;6.30;57.50;;;;;;5041506;28;20064;-52
2023/01/28 01:45:14;;;;;;;4.20;2.90;;;6.40;57.50;;;;;;5040469;28;20057;-53
2023/01/28 01:47:47;;;;;;;4.15;3.03;;;6.40;57.40;;;;;;5040405;28;20052;-52
2023/01/28 01:50:21;;;;;;;4.85;2.95;;;6.50;57.40;;;;;;5036345;28;20045;-53
2023/01/28 01:52:54;;;;;;;3.97;2.88;;;6.50;57.20;;;;;;5040674;28;20061;-52
2023/01/28 01:55:27;;;;;;;5.72;3.78;;;6.50;57.00;;;;;;5036490;28;20124;-53
2023/01/28 01:57:56;;;;;;;5.50;3.40;;;6.50;56.80;;;;;;5041035;28;20053;-54
2023/01/28 02:00:24;;;;;;;7.28;3.47;;;6.50;56.70;;;;;;5036767;28;20056;-49
2023/01/28 02:02:52;;;;;;;6.07;3.70;;;6.50;56.70;;;;;;5039531;28;20076;-50
2023/01/28 02:05:21;;;;;;;5.65;3.75;;;6.50;56.70;;;;;;5037762;28;20056;-49
2023/01/28 02:08:19;;;;;;;5.55;3.78;;;6.50;56.40;;;;;;5039771;28;20052;-47
2023/01/28 02:10:42;;;;;;;7.43;4.28;;;6.40;56.30;;;;;;5034971;28;20049;-48
2023/01/28 02:13:09;;;;;;;5.45;4.03;;;6.40;56.40;;;;;;5041092;28;20048;-52
2023/01/28 02:15:37;;;;;;;7.05;4.80;;;6.30;56.50;;;;;;5038987;28;20048;-47
2023/01/28 02:18:04;;;;;;;7.07;4.65;;;6.20;56.60;;;;;;5040606;28;20060;-49
2023/01/28 02:20:48;;;;;;;7.80;4.57;;;6.20;56.70;;;;;;5036053;28;20045;-51
2023/01/28 02:23:34;;;;;;;6.70;4.63;;;6.10;56.90;;;;;;5039705;28;20488;-50
2023/01/28 02:26:40;;;;;;;6.00;3.97;;;6.00;57.00;;;;;;5037068;28;20045;-50
2023/01/28 02:29:15;;;;;;;7.47;4.82;;;6.00;57.20;;;;;;5038891;28;20045;-50
2023/01/28 02:31:48;;;;;;;6.47;4.47;;;5.90;57.30;;;;;;5035995;28;20057;-49
2023/01/28 02:34:24;;;;;;;8.07;4.93;;;5.80;57.40;;;;;;5040441;28;20048;-51
2023/01/28 02:36:55;;;;;;;10.95;5.18;;;5.80;57.60;;;;;;5034026;28;20061;-51
2023/01/28 02:39:26;;;;;;;7.70;5.53;;;5.70;57.80;;;;;;5034945;28;20057;-46
2023/01/28 02:41:57;;;;;;;10.25;5.47;;;5.70;57.90;;;;;;5037976;28;20053;-50
2023/01/28 02:44:25;;;;;;;10.98;5.30;;;5.60;58.00;;;;;;5038077;28;20051;-51
2023/01/28 02:49:41;;;;;;;9.77;6.15;;;5.50;58.20;;;;;;5043284;28;20053;-52
2023/01/28 02:55:31;;;;;;;11.48;6.78;;;5.50;58.30;;;;;;5040737;28;20059;-51
2023/01/28 02:58:06;;;;;;;8.52;5.80;;;5.50;58.40;;;;;;5035543;28;20417;-49
2023/01/28 03:00:44;;;;;;;10.23;6.80;;;5.50;58.30;;;;;;5034531;28;20521;-47
2023/01/28 03:03:16;;;;;;;9.25;6.32;;;5.50;58.30;;;;;;5037756;28;20053;-51
2023/01/28 03:06:02;;;;;;;9.05;6.22;;;5.50;58.30;;;;;;5036608;28;20075;-51
2023/01/28 03:36:49;;;;;;;8.13;5.60;;;5.30;57.80;;;;;;5041538;28;20507;-48
2023/01/28 03:39:18;;;;;;;8.45;5.63;;;5.30;57.80;;;;;;5041567;28;20052;-50
2023/01/28 03:41:56;;;;;;;9.85;6.28;;;5.30;57.90;;;;;;5042301;28;20057;-50
2023/01/28 03:47:11;;;;;;;10.73;5.68;;;5.30;58.00;;;;;;5043319;28;20052;-48
2023/01/28 03:49:41;;;;;;;7.72;5.45;;;5.30;58.00;;;;;;5040959;28;20049;-52
2023/01/28 03:52:08;;;;;;;8.68;5.38;;;5.30;58.00;;;;;;5042804;28;20056;-49
2023/01/28 03:54:36;;;;;;;13.88;5.60;;;5.30;57.90;;;;;;5041070;28;20048;-50
2023/01/28 03:57:04;;;;;;;8.85;5.22;;;5.30;57.80;;;;;;5038682;28;20057;-49
2023/01/28 03:59:32;;;;;;;10.00;6.10;;;5.40;57.90;;;;;;5040942;28;20071;-46
2023/01/28 04:02:02;;;;;;;7.85;5.57;;;5.40;57.80;;;;;;5041738;28;20064;-53
2023/01/28 04:04:31;;;;;;;13.55;6.10;;;5.40;57.70;;;;;;5042095;28;20068;-49
2023/01/28 04:07:00;;;;;;;10.75;6.00;;;5.30;57.50;;;;;;5037132;28;20500;-52
2023/01/28 04:09:27;;;;;;;9.80;5.68;;;5.30;57.40;;;;;;5040731;28;20060;-52
2023/01/28 04:11:54;;;;;;;8.00;5.28;;;5.30;57.40;;;;;;5037286;28;20045;-53
2023/01/28 04:14:22;;;;;;;8.95;5.78;;;5.30;57.40;;;;;;5041961;28;20063;-50
2023/01/28 04:16:49;;;;;;;8.52;5.50;;;5.30;57.30;;;;;;5038895;28;20048;-49
2023/01/28 04:19:16;;;;;;;10.77;5.25;;;5.30;57.30;;;;;;5040598;28;20053;-50
2023/01/28 04:21:43;;;;;;;9.52;4.97;;;5.30;57.30;;;;;;5041968;28;20056;-52
2023/01/28 04:24:12;;;;;;;8.00;4.90;;;5.30;57.20;;;;;;5041381;28;20133;-53
2023/01/28 04:26:39;;;;;;;9.75;5.05;;;5.20;57.10;;;;;;5038032;28;21409;-50
2023/01/28 04:29:07;;;;;;;7.40;5.05;;;5.20;57.10;;;;;;5042270;28;20057;-51
2023/01/28 04:31:35;;;;;;;8.05;5.20;;;5.20;57.10;;;;;;5041119;28;20059;-50
2023/01/28 04:34:02;;;;;;;10.00;5.35;;;5.20;57.00;;;;;;5042927;28;20049;-53
2023/01/28 04:36:29;;;;;;;7.38;5.15;;;5.20;56.90;;;;;;5038816;28;20048;-52
2023/01/28 04:38:56;;;;;;;9.05;5.18;;;5.20;56.90;;;;;;5040620;28;20060;-52
2023/01/28 04:41:25;;;;;;;7.35;4.55;;;5.10;56.80;;;;;;5038882;28;20040;-49
2023/01/28 04:43:52;;;;;;;7.43;5.18;;;5.20;56.90;;;;;;5043262;28;20433;-52
2023/01/28 04:46:20;;;;;;;7.10;5.57;;;5.10;56.90;;;;;;5036462;28;20124;-52
2023/01/28 04:48:47;;;;;;;8.98;5.53;;;5.10;56.80;;;;;;5039166;28;20052;-52
2023/01/28 04:51:14;;;;;;;8.70;5.93;;;5.10;56.90;;;;;;5043309;28;20053;-50
2023/01/28 04:53:41;;;;;;;11.40;5.75;;;5.10;56.80;;;;;;5040944;28;20048;-54
2023/01/28 04:56:08;;;;;;;12.82;5.82;;;5.10;56.70;;;;;;5038200;28;20057;-50
2023/01/28 04:58:37;;;;;;;9.65;5.57;;;5.10;56.70;;;;;;5038823;28;20063;-50
2023/01/28 05:01:04;;;;;;;8.45;5.82;;;5.00;57.00;;;;;;5042013;28;20045;-54
2023/01/28 05:03:32;;;;;;;6.90;5.22;;;5.00;56.60;;;;;;5039164;28;20429;-51
2023/01/28 05:05:59;;;;;;;10.63;5.78;;;5.00;56.70;;;;;;5038920;28;20501;-53
2023/01/28 05:08:26;;;;;;;8.45;5.93;;;4.90;56.80;;;;;;5040856;28;20599;-52
2023/01/28 05:10:53;;;;;;;8.52;6.43;;;4.90;56.80;;;;;;5034778;28;20052;-50
2023/01/28 05:13:20;;;;;;;8.88;6.07;;;4.80;56.70;;;;;;5042129;28;20060;-52
2023/01/28 05:15:53;;;;;;;11.30;6.70;;;4.80;56.60;;;;;;5035353;28;20743;-47
2023/01/28 05:18:20;;;;;;;10.60;7.03;;;4.70;56.70;;;;;;5032458;28;20048;-53
2023/01/28 05:20:48;;;;;;;9.43;6.75;;;4.70;56.70;;;;;;5038555;28;20056;-50
2023/01/28 05:23:15;;;;;;;12.48;7.38;;;4.60;56.80;;;;;;5038735;28;20056;-52
2023/01/28 05:25:42;;;;;;;10.93;6.85;;;4.60;56.90;;;;;;5036309;28;20064;-53
2023/01/28 05:28:09;;;;;;;14.60;7.40;;;4.50;57.00;;;;;;5038907;28;20057;-52
2023/01/28 05:30:38;;;;;;;13.35;8.27;;;4.50;57.10;;;;;;5036986;28;20432;-54
2023/01/28 05:33:07;;;;;;;12.38;7.63;;;4.50;57.10;;;;;;5035713;28;20505;-51
2023/01/28 05:35:35;;;;;;;13.63;7.90;;;4.40;56.90;;;;;;5032773;28;20063;-51
2023/01/28 05:38:03;;;;;;;17.65;8.70;;;4.40;57.20;;;;;;5037543;28;20072;-53
2023/01/28 05:40:30;;;;;;;11.95;8.27;;;4.30;57.20;;;;;;5036003;28;20049;-53
2023/01/28 05:42:57;;;;;;;13.13;7.90;;;4.30;57.30;;;;;;5038635;28;20056;-53
2023/01/28 05:45:24;;;;;;;12.15;8.40;;;4.20;57.40;;;;;;5041181;28;20061;-52
2023/01/28 05:47:52;;;;;;;11.90;7.82;;;4.20;57.40;;;;;;5038896;28;20053;-50
2023/01/28 05:50:20;;;;;;;11.10;7.20;;;4.20;57.50;;;;;;5039865;28;20057;-50
2023/01/28 05:52:48;;;;;;;10.10;6.82;;;4.10;57.60;;;;;;5034203;28;20056;-49
2023/01/28 05:55:15;;;;;;;9.65;6.57;;;4.10;57.60;;;;;;5037251;28;20049;-49
2023/01/28 05:57:43;;;;;;;11.25;7.28;;;4.10;57.60;;;;;;5036572;28;20508;-52
2023/01/28 06:00:12;;;;;;;11.13;6.95;;;4.10;57.60;;;;;;5038408;28;20068;-50
2023/01/28 06:02:39;;;;;;;10.25;6.95;;;4.10;57.70;;;;;;5034129;28;20508;-52
2023/01/28 06:05:07;;;;;;;10.20;7.47;;;4.10;57.60;;;;;;5040635;28;20390;-51
2023/01/28 06:07:36;;;;;;;11.30;7.13;;;4.10;57.60;;;;;;5042422;28;20716;-53
2023/01/28 06:10:03;;;;;;;14.02;7.70;;;4.10;57.60;;;;;;5039349;28;20084;-51
2023/01/28 06:12:30;;;;;;;11.38;7.28;;;4.10;57.60;;;;;;5041407;28;20497;-52
2023/01/28 06:14:58;;;;;;;11.30;7.45;;;4.10;57.60;;;;;;5040121;28;20501;-51
2023/01/28 06:17:25;;;;;;;12.57;6.75;;;4.00;57.60;;;;;;5039440;28;20057;-51
2023/01/28 06:19:52;;;;;;;10.43;7.22;;;4.00;57.70;;;;;;5039043;28;20061;-52
2023/01/28 06:22:20;;;;;;;8.82;6.47;;;4.00;57.80;;;;;;5039396;28;20053;-50
2023/01/28 06:24:48;;;;;;;10.82;7.00;;;4.00;57.90;;;;;;5037810;28;20481;-47
2023/01/28 06:27:16;;;;;;;11.63;7.45;;;4.00;58.00;;;;;;5038656;28;20052;-50
2023/01/28 06:29:43;;;;;;;12.15;7.28;;;4.00;58.00;;;;;;5038532;28;20048;-54
2023/01/28 06:32:10;;;;;;;11.13;7.10;;;4.00;58.00;;;;;;5039383;28;20057;-51
2023/01/28 06:34:37;;;;;;;10.95;7.40;;;4.00;58.10;;;;;;5036660;28;20056;-50
2023/01/28 06:37:04;;;;;;;14.38;7.82;;;4.00;58.20;;;;;;5036778;28;20057;-53
2023/01/28 06:39:32;;;;;;;13.30;8.60;;;4.00;58.20;;;;;;5037765;28;20410;-52
2023/01/28 06:42:01;;;;;;;13.82;7.72;;;4.00;58.20;;;;;;5036052;28;20052;-48
2023/01/28 06:44:28;;;;;;;12.63;8.40;;;4.00;58.20;;;;;;5038352;28;20052;-52
2023/01/28 06:46:55;;;;;;;10.98;7.40;;;4.00;58.10;;;;;;5037811;28;20052;-50
2023/01/28 06:49:22;;;;;;;16.33;8.88;;;4.10;58.20;;;;;;5039961;28;20045;-51
2023/01/28 06:51:50;;;;;;;15.70;9.95;;;4.00;58.10;;;;;;5037667;28;20084;-48
2023/01/28 06:54:17;;;;;;;17.52;9.50;;;4.00;58.10;;;;;;5037334;28;20060;-50
2023/01/28 06:56:44;;;;;;;16.98;9.30;;;4.00;58.10;;;;;;5037546;28;20052;-51
2023/01/28 06:59:13;;;;;;;16.40;10.55;;;4.00;58.20;;;;;;5039053;28;20053;-51
2023/01/28 07:01:40;;;;;;;15.25;10.57;;;4.00;58.20;;;;;;5036900;28;20056;-51
2023/01/28 07:04:07;;;;;;;14.57;9.15;;;4.00;58.20;;;;;;5035427;28;20412;-51
2023/01/28 07:06:34;;;;;;;12.57;8.55;;;4.00;58.30;;;;;;5039940;28;20053;-47
2023/01/28 07:09:02;;;;;;;14.77;9.20;;;4.00;58.40;;;;;;5038064;28;20040;-52
2023/01/28 07:11:29;;;;;;;14.27;9.10;;;4.00;58.40;;;;;;5030360;28;20404;-52
2023/01/28 07:13:56;;;;;;;11.88;7.97;;;4.00;58.40;;;;;;5043020;28;20052;-51
2023/01/28 07:16:25;;;;;;;12.82;8.88;;;4.00;58.50;;;;;;5043193;28;20056;-48
2023/01/28 07:18:52;;;;;;;14.48;9.75;;;4.00;58.50;;;;;;5042203;28;20052;-51
2023/01/28 07:21:19;;;;;;;12.40;9.52;;;4.10;58.50;;;;;;5040930;28;20052;-50
2023/01/28 07:23:47;;;;;;;12.88;8.55;;;4.10;58.50;;;;;;5041026;28;20083;-51
2023/01/28 07:26:15;;;;;;;11.07;8.23;;;4.10;58.50;;;;;;5042161;28;20426;-50
2023/01/28 07:28:42;;;;;;;11.98;8.27;;;4.10;58.50;;;;;;5043295;28;20060;-51
2023/01/28 07:31:09;;;;;;;11.07;8.10;;;4.10;58.60;;;;;;5043498;28;20079;-50
2023/01/28 07:33:38;;;;;;;13.90;9.27;;;4.20;58.60;;;;;;5042017;28;20525;-50
2023/01/28 07:36:06;;;;;;;11.63;7.95;;;4.20;58.50;;;;;;5043204;28;20052;-52
2023/01/28 07:38:33;;;;;;;9.57;7.18;;;4.20;59.00;;;;;;5041983;28;20120;-51
2023/01/28 07:41:01;;;;;;;11.95;8.23;;;4.20;58.50;;;;;;5043244;28;20057;-51
2023/01/28 07:43:28;;;;;;;11.98;8.25;;;4.30;58.60;;;;;;5043679;28;20433;-50
2023/01/28 07:45:55;;;;;;;16.27;8.35;;;4.30;58.50;;;;;;5043592;28;20057;-49
2023/01/28 07:48:22;;;;;;;12.30;8.15;;;4.40;58.60;;;;;;5043230;28;20044;-49
2023/01/28 07:50:51;;;;;;;13.05;8.63;;;4.40;58.40;;;;;;5041139;28;20049;-48
2023/01/28 07:53:19;;;;;;;11.68;8.52;;;4.50;58.80;;;;;;5042499;28;20041;-49
2023/01/28 07:55:46;;;;;;;14.13;9.07;;;4.50;58.20;;;;;;5040948;28;20049;-52
2023/01/28 07:58:13;;;;;;;14.82;8.77;;;4.50;58.20;;;;;;5043521;28;20053;-49
2023/01/28 08:00:40;;;;;;;13.73;9.25;;;4.50;58.10;;;;;;5018850;28;20053;-50
2023/01/28 08:03:12;;;;;;;11.88;8.10;;;4.50;58.10;;;;;;5022489;28;20056;-51
2023/01/28 08:05:42;;;;;;;12.95;8.38;;;4.50;58.00;;;;;;5018591;28;20054;-51
2023/01/28 08:08:11;;;;;;;11.23;8.45;;;4.50;58.00;;;;;;5023297;28;20049;-54
2023/01/28 08:10:39;;;;;;;12.75;8.82;;;4.50;58.00;;;;;;5017929;28;20052;-48
2023/01/28 08:13:07;;;;;;;12.88;9.25;;;4.50;58.00;;;;;;5020147;28;20505;-46
2023/01/28 08:15:35;;;;;;;12.32;8.60;;;4.50;58.00;;;;;;5022452;28;20068;-51
2023/01/28 08:18:04;;;;;;;13.98;8.45;;;4.40;57.90;;;;;;5022593;28;20500;-50
2023/01/28 08:20:31;;;;;;;14.25;9.10;;;4.40;57.90;;;;;;5022163;28;20421;-52
2023/01/28 08:23:06;;;;;;;14.93;9.32;;;4.40;58.00;;;;;;5021857;28;20041;-51
2023/01/28 08:25:35;;;;;;;15.10;9.52;;;4.40;58.10;;;;;;5021375;28;20049;-52
2023/01/28 08:28:03;;;;;;;13.10;8.77;;;4.40;58.60;;;;;;5021939;28;20056;-53
2023/01/28 08:30:30;;;;;;;11.77;8.05;;;4.40;58.20;;;;;;5022180;28;20061;-49
2023/01/28 08:32:58;;;;;;;12.07;8.35;;;4.40;58.20;;;;;;5021075;28;20069;-52
2023/01/28 08:35:26;;;;;;;10.38;7.60;;;4.40;58.10;;;;;;5022477;28;20064;-49
2023/01/28 08:37:53;;;;;;;11.05;7.95;;;4.40;58.20;;;;;;5015867;28;20060;-51
2023/01/28 08:40:21;;;;;;;9.23;7.40;;;4.40;58.20;;;;;;5009528;28;20061;-48
2023/01/28 08:42:51;;;;;;;14.73;8.63;;;4.50;58.30;;;;;;5016501;28;20828;-52
2023/01/28 08:45:21;;;;;;;13.18;8.55;;;4.50;58.40;;;;;;5006449;28;20057;-48
2023/01/28 08:47:49;;;;;;;11.95;8.05;;;4.50;58.20;;;;;;5015914;28;21151;-52
2023/01/28 08:50:17;;;;;;;12.65;8.50;;;4.60;58.20;;;;;;5011114;28;20124;-50
2023/01/28 08:52:45;;;;;;;12.00;8.65;;;4.60;58.00;;;;;;5017322;28;20532;-51
2023/01/28 08:55:12;;;;;;;13.13;8.15;;;4.60;57.80;;;;;;5018451;28;20860;-49
2023/01/28 08:57:40;;;;;;;11.65;8.07;;;4.60;57.80;;;;;;5017640;28;20486;-48
2023/01/28 09:00:13;;;;;;;12.80;8.43;;;4.60;57.80;;;;;;5020068;28;20068;-51
2023/01/28 09:02:40;;;;;;;14.55;8.63;;;4.60;57.90;;;;;;5014364;28;20060;-50
2023/01/28 09:05:09;;;;;;;13.63;8.32;;;4.60;57.80;;;;;;5020880;28;20053;-50
2023/01/28 09:07:37;;;;;;;13.20;8.88;;;4.60;57.80;;;;;;5020412;28;20049;-52
2023/01/28 09:10:06;;;;;;;17.42;9.10;;;4.60;57.80;;;;;;5018786;28;20064;-51
2023/01/28 09:12:33;;;;;;;12.00;8.77;;;4.60;57.70;;;;;;5021246;28;20497;-50
2023/01/28 09:15:01;;;;;;;13.15;9.23;;;4.60;57.60;;;;;;5014430;28;20497;-47
2023/01/28 09:17:29;;;;;;;13.88;9.60;;;4.60;57.70;;;;;;5021666;28;20628;-52
2023/01/28 09:19:56;;;;;;;13.77;9.15;;;4.60;57.80;;;;;;5019591;28;20064;-48
2023/01/28 09:22:24;;;;;;;13.07;9.10;;;4.60;57.90;;;;;;5021881;28;20049;-50
2023/01/28 09:24:52;;;;;;;11.57;8.48;;;4.60;58.10;;;;;;5015769;28;20061;-50
2023/01/28 09:27:19;;;;;;;13.55;8.65;;;4.60;58.20;;;;;;5020961;28;20053;-48
2023/01/28 09:29:46;;;;;;;14.18;9.65;;;4.60;58.10;;;;;;5021555;28;20050;-52
2023/01/28 09:32:13;;;;;;;15.07;9.50;;;4.60;58.00;;;;;;5020454;28;20045;-51
2023/01/28 09:34:43;;;;;;;14.60;9.57;;;4.60;58.40;;;;;;5020490;28;20045;-49
2023/01/28 09:37:11;;;;;;;14.75;9.88;;;4.60;57.90;;;;;;5016549;28;20061;-52
2023/01/28 09:39:38;;;;;;;13.95;9.63;;;4.60;58.00;;;;;;5010369;28;20049;-49
2023/01/28 09:42:23;;;;;;;15.40;9.98;;;4.60;58.00;;;;;;5020197;28;20449;-53
2023/01/28 09:44:56;;;;;;;;;;;4.60;58.00;;;;;;5019112;28;20053;-52
2023/01/28 09:47:26;;;;;;;15.07;9.80;;;4.60;58.00;;;;;;5018996;28;19928;-52
2023/01/28 09:50:02;;;;;;;15.75;10.23;;;4.60;58.00;;;;;;5016533;28;20057;-49
2023/01/28 09:52:33;;;;;;;16.10;10.82;;;4.60;58.20;;;;;;5017151;28;20064;-51
2023/01/28 09:55:03;;;;;;;16.67;9.25;;;4.60;58.30;;;;;;5016728;28;20065;-52
2023/01/28 09:57:38;;;;;;;19.88;11.70;;;4.60;58.30;;;;;;5017575;28;20057;-48
2023/01/28 10:00:14;;;;;;;18.15;11.35;;;4.60;58.40;;;;;;5029433;28;20417;-51
2023/01/28 10:02:55;;;;;;;16.00;11.52;;;4.60;58.30;;;;;;5038453;28;20049;-53
2023/01/28 10:05:33;;;;;;;20.17;11.75;;;4.60;58.30;;;;;;5038701;28;20056;-49
2023/01/28 10:08:12;;;;;;;15.73;10.15;;;4.60;58.40;;;;;;5033769;28;20056;-48
2023/01/28 10:10:47;;;;;;;17.08;10.77;;;4.60;58.40;;;;;;5035297;28;20456;-49
2023/01/28 10:13:25;;;;;;;16.83;11.30;;;4.60;58.30;;;;;;5034737;28;20052;-52
2023/01/28 10:16:09;;;;;;;16.50;10.02;;;4.60;58.30;;;;;;5037468;28;20064;-51
2023/01/28 10:18:43;;;;;;;14.50;9.93;;;4.60;58.20;;;;;;5037066;28;20044;-54
2023/01/28 10:21:16;;;;;;;14.88;9.73;;;4.60;58.10;;;;;;5036958;28;20068;-51
2023/01/28 10:23:57;;;;;;;15.15;9.30;;;4.60;58.10;;;;;;5039148;28;20052;-50
2023/01/28 10:26:26;;;;;;;13.18;9.48;;;4.60;58.00;;;;;;5035777;28;20413;-54
2023/01/28 10:29:00;;;;;;;15.32;9.43;;;4.60;57.80;;;;;;5039831;28;20057;-49
2023/01/28 10:31:33;;;;;;;17.17;9.45;;;4.60;57.70;;;;;;5038373;28;20064;-49
2023/01/28 10:34:00;;;;;;;15.55;10.35;;;4.50;57.60;;;;;;5039120;28;20409;-48
2023/01/28 10:36:29;;;;;;;14.00;10.23;;;4.50;57.80;;;;;;5029465;28;20057;-49
2023/01/28 10:38:57;;;;;;;13.52;9.63;;;4.50;57.70;;;;;;5041512;28;20060;-51
2023/01/28 10:41:25;;;;;;;19.52;9.27;;;4.50;57.80;;;;;;5041069;28;20493;-51
2023/01/28 10:43:53;;;;;;;13.70;9.27;;;4.50;57.80;;;;;;5040557;28;20048;-51
2023/01/28 10:46:23;;;;;;;12.55;8.35;;;4.50;57.60;;;;;;5039310;28;20057;-48
2023/01/28 10:48:58;;;;;;;15.70;9.27;;;4.50;57.40;;;;;;5041346;28;20076;-52
2023/01/28 10:51:34;;;;;;;13.60;8.77;;;4.50;57.10;;;;;;5041425;28;20409;-51
2023/01/28 10:54:02;;;;;;;11.73;8.38;;;4.50;57.10;;;;;;5041955;28;20076;-50
2023/01/28 10:56:32;;;;;;;13.88;8.77;;;4.40;57.10;;;;;;5043715;28;20060;-53
2023/01/28 10:59:02;;;;;;;11.57;7.82;;;4.40;57.10;;;;;;5043377;28;20394;-49
2023/01/28 11:01:41;;;;;;;12.02;8.43;;;4.40;57.20;;;;;;5043159;28;20050;-51
2023/01/28 11:04:18;;;;;;;10.90;7.57;;;4.40;57.10;;;;;;5042021;28;20420;-52
2023/01/28 11:06:58;;;;;;;14.98;7.95;;;4.40;56.90;;;;;;5043891;28;20063;-51
2023/01/28 11:09:28;;;;;;;9.38;6.35;;;4.40;56.50;;;;;;5042046;28;20385;-51
2023/01/28 11:11:55;;;;;;;8.90;6.13;;;4.50;56.40;;;;;;5037024;28;20421;-54
2023/01/28 11:14:26;;;;;;;13.27;6.95;;;4.40;56.10;;;;;;5041724;28;20052;-52
2023/01/28 11:16:56;;;;;;;9.50;6.13;;;4.40;55.90;;;;;;5039685;28;20067;-53
2023/01/28 11:19:31;;;;;;;10.10;6.70;;;4.50;55.70;;;;;;5041531;28;20072;-52
2023/01/28 11:22:00;;;;;;;10.23;6.32;;;4.50;55.80;;;;;;5040534;28;20519;-52
2023/01/28 11:24:30;;;;;;;9.52;6.45;;;4.50;55.60;;;;;;5037673;28;20484;-51
2023/01/28 11:27:01;;;;;;;10.20;6.55;;;4.50;55.40;;;;;;5039443;28;20049;-52
2023/01/28 11:29:31;;;;;;;9.30;6.13;;;4.50;55.30;;;;;;5041462;28;20056;-50
2023/01/28 11:32:00;;;;;;;10.05;6.75;;;4.50;55.40;;;;;;5042897;28;20471;-50
2023/01/28 11:34:29;;;;;;;13.82;7.25;;;4.60;55.40;;;;;;5041408;28;20421;-50
2023/01/28 11:37:04;;;;;;;8.15;5.45;;;4.60;55.10;;;;;;5041923;28;20060;-50
2023/01/28 11:39:32;;;;;;;10.18;6.38;;;4.60;55.40;;;;;;5038681;28;20057;-54
2023/01/28 11:42:17;;;;;;;9.18;6.03;;;4.60;55.30;;;;;;5039142;28;20496;-51
2023/01/28 11:44:45;;;;;;;10.05;5.95;;;4.60;54.80;;;;;;5036828;28;20496;-47
2023/01/28 11:47:26;;;;;;;8.27;5.85;;;4.70;55.10;;;;;;5040801;28;20057;-53
2023/01/28 11:50:11;;;;;;;11.50;6.00;;;4.70;54.70;;;;;;5042522;28;20053;-51
2023/01/28 11:52:50;;;;;;;10.77;6.05;;;4.80;54.80;;;;;;5042889;28;20497;-50
2023/01/28 11:55:34;;;;;;;11.43;5.95;;;4.80;54.60;;;;;;5043007;28;20052;-51
2023/01/28 11:58:14;;;;;;;8.30;5.53;;;4.80;54.00;;;;;;5041220;28;20056;-51
2023/01/28 12:00:51;;;;;;;9.10;5.85;;;4.90;54.10;;;;;;5021719;28;20053;-50
2023/01/28 12:03:39;;;;;;;11.43;5.45;;;4.90;53.80;;;;;;5024458;28;20053;-50
2023/01/28 12:06:25;;;;;;;10.23;5.38;;;4.90;53.50;;;;;;5022359;28;20052;-54
2023/01/28 12:09:00;;;;;;;8.77;5.45;;;4.90;52.70;;;;;;5025368;28;20065;-52
2023/01/28 12:14:28;;;;;;;8.23;6.40;;;4.90;52.40;;;;;;5030855;28;20065;-54
2023/01/28 12:17:05;;;;;;;10.18;6.22;;;4.90;53.20;;;;;;5024160;28;20057;-47
2023/01/28 12:19:43;;;;;;;8.68;6.03;;;4.90;52.70;;;;;;5025134;28;20081;-49
2023/01/28 12:22:35;;;;;;;9.18;5.60;;;4.90;52.90;;;;;;5025113;28;20057;-52
2023/01/28 12:25:21;;;;;;;8.77;6.38;;;4.90;52.90;;;;;;5023717;28;20049;-52
2023/01/28 12:27:58;;;;;;;10.27;6.03;;;4.80;52.50;;;;;;5022843;28;20139;-49
2023/01/28 12:30:39;;;;;;;10.82;6.70;;;4.80;52.80;;;;;;5026260;28;20049;-50
2023/01/28 12:33:36;;;;;;;9.32;6.43;;;4.80;53.10;;;;;;5025127;28;20060;-49
2023/01/28 12:36:18;;;;;;;13.02;7.10;;;4.70;53.20;;;;;;5024323;28;20057;-51
2023/01/28 12:38:57;;;;;;;11.85;7.47;;;4.70;52.90;;;;;;5022474;28;20057;-51
2023/01/28 12:41:29;;;;;;;8.52;6.45;;;4.70;52.70;;;;;;5024267;28;20050;-52
2023/01/28 12:44:01;;;;;;;15.88;6.90;;;4.70;52.90;;;;;;5024155;28;20378;-53
2023/01/28 12:46:42;;;;;;;10.30;6.55;;;4.70;53.10;;;;;;5025435;28;20049;-50
2023/01/28 12:49:16;;;;;;;9.85;6.63;;;4.70;53.10;;;;;;5024069;28;20400;-51
2023/01/28 12:51:54;;;;;;;11.30;6.65;;;4.70;53.10;;;;;;5024392;28;20053;-52
2023/01/28 12:54:28;;;;;;;10.70;7.35;;;4.70;52.80;;;;;;5021671;28;20061;-51
2023/01/28 12:56:58;;;;;;;11.50;6.80;;;4.70;52.50;;;;;;5020322;28;20061;-52
2023/01/28 12:59:29;;;;;;;9.80;6.32;;;4.70;52.30;;;;;;5026029;28;20506;-52
2023/01/28 13:02:05;;;;;;;9.07;6.38;;;4.70;52.10;;;;;;5024162;28;20072;-52
2023/01/28 13:04:40;;;;;;;12.13;6.47;;;4.60;52.50;;;;;;5022048;28;20508;-51
2023/01/28 13:07:12;;;;;;;8.88;6.80;;;4.60;52.60;;;;;;5023635;28;20049;-51
2023/01/28 13:09:47;;;;;;;9.18;6.40;;;4.60;52.70;;;;;;5021369;28;20049;-52
2023/01/28 13:12:17;;;;;;;9.23;6.65;;;4.60;53.10;;;;;;5031387;28;20061;-50
2023/01/28 13:14:44;;;;;;;8.73;5.90;;;4.60;52.30;;;;;;5023777;28;20512;-50
2023/01/28 13:17:13;;;;;;;10.55;6.75;;;4.70;52.60;;;;;;5022554;28;20068;-51
2023/01/28 13:19:41;;;;;;;9.75;6.20;;;4.70;53.20;;;;;;5023701;28;20060;-50
2023/01/28 13:22:29;;;;;;;10.20;6.28;;;4.70;52.80;;;;;;5030754;28;20536;-50
2023/01/28 13:24:58;;;;;;;11.60;5.80;;;4.70;52.40;;;;;;5021234;28;20528;-50
2023/01/28 13:27:28;;;;;;;9.75;6.28;;;4.80;52.50;;;;;;5021990;28;20064;-51
2023/01/28 13:30:05;;;;;;;6.50;5.28;;;4.70;51.30;;;;;;5026027;28;20068;-50
2023/01/28 13:32:35;;;;;;;7.88;5.85;;;4.70;51.40;;;;;;5028160;28;20063;-52
2023/01/28 13:35:06;;;;;;;8.13;5.70;;;4.70;50.70;;;;;;5023552;28;20045;-50
2023/01/28 13:37:38;;;;;;;9.38;5.03;;;4.70;49.90;;;;;;5025582;28;20421;-50
2023/01/28 13:40:24;;;;;;;7.82;5.40;;;4.70;50.10;;;;;;5018919;28;20045;-51
2023/01/28 13:43:01;;;;;;;5.78;5.20;;;4.70;50.20;;;;;;5023897;28;20433;-52
2023/01/28 13:45:29;;;;;;;5.72;5.07;;;4.70;50.60;;;;;;5026434;28;20054;-51
2023/01/28 13:48:05;;;;;;;8.27;5.50;;;4.60;50.90;;;;;;5022316;28;20068;-53